createdAt,value
2023-04-17T00:01:16.164Z,11.07
2023-04-17T00:03:43.177Z,11.04
2023-04-17T00:06:09.967Z,11.00
2023-04-17T00:08:36.665Z,11.00
2023-04-17T00:11:07.814Z,10.98
2023-04-17T00:13:36.286Z,10.97
2023-04-17T00:16:03.353Z,10.91
2023-04-17T00:18:30.130Z,10.92
2023-04-17T00:20:57.185Z,10.94
2023-04-17T00:23:25.709Z,10.92
2023-04-17T00:25:52.343Z,10.95
2023-04-17T00:28:19.410Z,10.94
2023-04-17T00:30:46.802Z,10.95
2023-04-17T00:33:13.662Z,10.95
2023-04-17T00:35:40.330Z,10.96
2023-04-17T00:38:09.151Z,10.99
2023-04-17T00:40:36.440Z,10.98
2023-04-17T00:43:04.710Z,10.99
2023-04-17T00:45:31.569Z,11.02
2023-04-17T00:48:00.622Z,11.11
2023-04-17T00:50:31.443Z,11.13
2023-04-17T00:52:59.616Z,11.17
2023-04-17T00:55:27.621Z,11.21
2023-04-17T00:57:55.657Z,11.22
2023-04-17T01:00:22.756Z,11.25
2023-04-17T01:02:49.489Z,11.29
2023-04-17T01:05:16.218Z,11.33
2023-04-17T01:07:43.058Z,11.37
2023-04-17T01:10:10.483Z,11.42
2023-04-17T01:12:37.235Z,11.44
2023-04-17T01:15:04.828Z,11.41
2023-04-17T01:17:31.636Z,11.43
2023-04-17T01:19:58.383Z,11.47
2023-04-17T01:22:25.472Z,11.48
2023-04-17T01:24:52.160Z,11.49
2023-04-17T01:27:18.771Z,11.54
2023-04-17T01:29:45.482Z,11.55
2023-04-17T01:32:12.355Z,11.58
2023-04-17T01:34:39.030Z,11.60
2023-04-17T01:37:05.824Z,11.61
2023-04-17T01:39:32.510Z,11.63
2023-04-17T01:41:59.228Z,11.66
2023-04-17T01:44:25.922Z,11.70
2023-04-17T01:46:56.853Z,11.73
2023-04-17T01:49:23.518Z,11.77
2023-04-17T01:51:50.124Z,11.78
2023-04-17T01:54:16.794Z,11.80
2023-04-17T01:56:43.457Z,11.81
2023-04-17T01:59:11.053Z,11.82
2023-04-17T02:01:38.113Z,11.83
2023-04-17T02:04:06.175Z,11.84
2023-04-17T02:06:35.964Z,11.84
2023-04-17T02:09:03.124Z,11.82
2023-04-17T02:11:29.817Z,11.76
2023-04-17T02:13:56.443Z,11.74
2023-04-17T02:16:23.231Z,11.71
2023-04-17T02:18:52.061Z,11.71
2023-04-17T02:21:18.737Z,11.72
2023-04-17T02:23:46.746Z,11.73
2023-04-17T02:26:14.800Z,11.71
2023-04-17T02:28:44.290Z,11.68
2023-04-17T02:31:12.052Z,11.62
2023-04-17T02:33:38.861Z,11.56
2023-04-17T02:36:06.410Z,11.51
2023-04-17T02:38:33.135Z,11.51
2023-04-17T02:41:00.299Z,11.47
2023-04-17T02:43:26.928Z,11.44
2023-04-17T02:45:53.569Z,11.43
2023-04-17T02:48:20.388Z,11.44
2023-04-17T02:50:47.065Z,11.43
2023-04-17T02:53:14.754Z,11.42
2023-04-17T02:55:41.382Z,11.42
2023-04-17T02:58:08.279Z,11.37
2023-04-17T03:00:39.390Z,11.32
2023-04-17T03:03:06.377Z,11.29
2023-04-17T03:05:33.388Z,11.26
2023-04-17T03:08:00.220Z,11.23
2023-04-17T03:10:26.922Z,11.22
2023-04-17T03:12:53.698Z,11.22
2023-04-17T03:15:20.443Z,11.24
2023-04-17T03:17:47.391Z,11.26
2023-04-17T03:20:15.963Z,11.26
2023-04-17T03:22:42.805Z,11.29
2023-04-17T03:25:10.039Z,11.31
2023-04-17T03:27:36.734Z,11.32
2023-04-17T03:30:03.668Z,11.32
2023-04-17T03:32:30.369Z,11.32
2023-04-17T03:34:57.012Z,11.33
2023-04-17T03:37:23.709Z,11.36
2023-04-17T03:39:50.410Z,11.37
2023-04-17T03:42:17.083Z,11.35
2023-04-17T03:44:43.712Z,11.34
2023-04-17T03:47:10.725Z,11.35
2023-04-17T03:49:37.452Z,11.36
2023-04-17T03:52:05.330Z,11.36
2023-04-17T03:54:35.488Z,11.35
2023-04-17T03:57:03.475Z,11.36
2023-04-17T03:59:31.860Z,11.36
2023-04-17T04:01:58.918Z,11.36
2023-04-17T04:04:26.216Z,11.33
2023-04-17T04:06:54.619Z,11.33
2023-04-17T04:09:21.626Z,11.33
2023-04-17T04:11:48.514Z,11.33
2023-04-17T04:14:15.287Z,11.33
2023-04-17T04:16:42.320Z,11.36
2023-04-17T04:19:09.392Z,11.37
2023-04-17T04:21:36.571Z,11.35
2023-04-17T04:24:03.403Z,11.37
2023-04-17T04:26:30.048Z,11.37
2023-04-17T04:28:56.824Z,11.38
2023-04-17T04:31:29.768Z,11.39
2023-04-17T04:33:58.318Z,11.36
2023-04-17T04:36:25.370Z,11.35
2023-04-17T04:38:52.036Z,11.34
2023-04-17T04:41:20.050Z,11.33
2023-04-17T04:43:46.743Z,11.33
2023-04-17T04:46:13.476Z,11.31
2023-04-17T04:48:42.714Z,11.31
2023-04-17T04:51:12.279Z,11.29
2023-04-17T04:53:38.995Z,11.27
2023-04-17T04:56:06.072Z,11.27
2023-04-17T04:58:32.742Z,11.29
2023-04-17T05:00:59.435Z,11.28
2023-04-17T05:03:26.458Z,11.27
2023-04-17T05:05:53.242Z,11.29
2023-04-17T05:08:20.437Z,11.27
2023-04-17T05:10:47.248Z,11.23
2023-04-17T05:13:13.994Z,11.20
2023-04-17T05:15:41.615Z,11.15
2023-04-17T05:18:08.318Z,11.12
2023-04-17T05:20:36.405Z,11.10
2023-04-17T05:23:03.210Z,11.06
2023-04-17T05:25:29.896Z,11.05
2023-04-17T05:28:03.213Z,11.07
2023-04-17T05:30:29.832Z,11.06
2023-04-17T05:32:56.645Z,11.07
2023-04-17T05:35:23.349Z,11.10
2023-04-17T05:37:50.248Z,11.12
2023-04-17T05:40:16.951Z,11.11
2023-04-17T05:42:43.630Z,11.10
2023-04-17T05:45:18.136Z,11.10
2023-04-17T05:47:44.972Z,11.12
2023-04-17T05:50:11.813Z,11.11
2023-04-17T05:52:39.632Z,11.09
2023-04-17T05:55:06.895Z,11.06
2023-04-17T05:57:33.505Z,11.04
2023-04-17T06:00:00.340Z,11.03
2023-04-17T06:02:27.376Z,11.05
2023-04-17T06:04:54.559Z,11.05
2023-04-17T06:07:21.666Z,11.05
2023-04-17T06:09:48.277Z,11.07
2023-04-17T06:12:16.358Z,11.09
2023-04-17T06:14:43.621Z,11.10
2023-04-17T06:17:10.679Z,11.11
2023-04-17T06:19:37.431Z,11.14
2023-04-17T06:22:04.147Z,11.17
2023-04-17T06:24:31.216Z,11.20
2023-04-17T06:26:58.083Z,11.22
2023-04-17T06:29:24.753Z,11.25
2023-04-17T06:31:51.399Z,11.26
2023-04-17T06:34:18.112Z,11.31
2023-04-17T06:36:44.783Z,11.35
2023-04-17T06:39:11.761Z,11.38
2023-04-17T06:41:38.667Z,11.42
2023-04-17T06:44:05.825Z,11.44
2023-04-17T06:46:32.542Z,11.47
2023-04-17T06:48:59.786Z,11.50
2023-04-17T06:51:27.798Z,11.52
2023-04-17T06:53:54.470Z,11.55
2023-04-17T06:56:21.541Z,11.60
2023-04-17T06:58:48.252Z,11.66
2023-04-17T07:01:15.366Z,11.72
2023-04-17T07:03:43.418Z,11.74
2023-04-17T07:06:10.888Z,11.78
2023-04-17T07:08:37.580Z,11.81
2023-04-17T07:11:04.292Z,11.86
2023-04-17T07:13:34.050Z,11.94
2023-04-17T07:16:01.459Z,11.99
2023-04-17T07:18:31.489Z,12.04
2023-04-17T07:20:58.177Z,12.11
2023-04-17T07:23:25.362Z,12.16
2023-04-17T07:25:52.006Z,12.21
2023-04-17T07:28:18.802Z,12.25
2023-04-17T07:30:45.713Z,12.34
2023-04-17T07:33:12.562Z,12.40
2023-04-17T07:35:39.670Z,12.46
2023-04-17T07:38:06.386Z,12.53
2023-04-17T07:40:35.986Z,12.59
2023-04-17T07:43:02.660Z,12.67
2023-04-17T07:45:29.308Z,12.73
2023-04-17T07:47:56.015Z,12.80
2023-04-17T07:50:22.870Z,12.88
2023-04-17T07:52:49.548Z,12.96
2023-04-17T07:55:16.795Z,13.04
2023-04-17T07:57:43.609Z,13.09
2023-04-17T08:00:13.771Z,13.19
2023-04-17T08:02:41.817Z,13.27
2023-04-17T08:05:09.631Z,13.35
2023-04-17T08:07:37.203Z,13.47
2023-04-17T08:10:05.283Z,13.67
2023-04-17T08:12:32.125Z,13.87
2023-04-17T08:14:58.921Z,14.11
2023-04-17T08:17:26.133Z,14.36
2023-04-17T08:19:57.636Z,14.58
2023-04-17T08:22:26.057Z,14.78
2023-04-17T08:24:57.917Z,14.89
2023-04-17T08:27:25.513Z,14.93
2023-04-17T08:29:56.638Z,15.09
2023-04-17T08:32:23.450Z,15.34
2023-04-17T08:34:50.174Z,15.71
2023-04-17T08:37:17.006Z,16.25
2023-04-17T08:39:43.760Z,16.96
2023-04-17T08:42:15.859Z,17.80
2023-04-17T08:44:44.305Z,18.73
2023-04-17T08:47:12.809Z,19.52
2023-04-17T08:49:43.482Z,20.37
2023-04-17T08:52:10.962Z,21.00
2023-04-17T08:54:39.080Z,21.51
2023-04-17T08:57:06.312Z,21.92
2023-04-17T08:59:33.341Z,22.04
2023-04-17T09:02:01.672Z,22.29
2023-04-17T09:04:38.864Z,22.50
2023-04-17T09:07:07.291Z,22.74
2023-04-17T09:09:48.195Z,22.95
2023-04-17T09:12:14.893Z,23.03
2023-04-17T09:14:41.664Z,23.23
2023-04-17T09:17:08.593Z,23.32
2023-04-17T09:19:35.500Z,23.39
2023-04-17T09:22:19.614Z,23.41
2023-04-17T09:24:46.458Z,23.61
2023-04-17T09:27:29.297Z,23.80
2023-04-17T09:30:04.459Z,23.87
2023-04-17T09:32:33.528Z,24.14
2023-04-17T09:35:02.324Z,24.17
2023-04-17T09:37:51.026Z,23.80
2023-04-17T09:40:19.812Z,23.84
2023-04-17T09:43:00.730Z,23.86
2023-04-17T09:45:33.583Z,23.80
2023-04-17T09:48:01.204Z,23.55
2023-04-17T09:50:28.040Z,23.41
2023-04-17T09:52:56.080Z,23.25
2023-04-17T09:55:32.663Z,23.17
2023-04-17T09:58:02.787Z,23.20
2023-04-17T10:00:30.107Z,23.20
2023-04-17T10:03:00.302Z,23.19
2023-04-17T10:05:29.346Z,22.65
2023-04-17T10:07:56.659Z,21.46
2023-04-17T10:10:34.209Z,20.21
2023-04-17T10:13:03.153Z,19.39
2023-04-17T10:15:30.600Z,18.78
2023-04-17T10:18:24.262Z,18.31
2023-04-17T10:20:53.649Z,18.02
2023-04-17T10:23:31.737Z,18.11
2023-04-17T10:26:26.531Z,18.22
2023-04-17T10:28:55.996Z,18.53
2023-04-17T10:31:26.013Z,19.14
2023-04-17T10:33:56.913Z,19.64
2023-04-17T10:36:38.849Z,20.42
2023-04-17T10:39:15.381Z,20.74
2023-04-17T10:42:04.744Z,20.53
2023-04-17T10:44:39.454Z,20.48
2023-04-17T10:47:07.397Z,20.72
2023-04-17T10:49:51.273Z,21.03
2023-04-17T10:52:34.557Z,21.12
2023-04-17T10:55:16.377Z,20.97
2023-04-17T10:58:03.474Z,20.75
2023-04-17T11:00:34.289Z,20.44
2023-04-17T11:03:02.043Z,19.85
2023-04-17T11:05:29.349Z,19.37
2023-04-17T11:07:56.551Z,18.99
2023-04-17T11:10:23.348Z,18.79
2023-04-17T11:12:56.739Z,18.72
2023-04-17T11:15:31.351Z,18.54
2023-04-17T11:17:59.422Z,18.36
2023-04-17T11:20:30.275Z,18.13
2023-04-17T11:23:04.506Z,18.14
2023-04-17T11:25:33.829Z,18.19
2023-04-17T11:28:06.556Z,18.21
2023-04-17T11:30:40.736Z,18.23
2023-04-17T11:33:08.300Z,18.19
2023-04-17T11:35:44.038Z,18.17
2023-04-17T11:38:20.782Z,18.12
2023-04-17T11:40:52.888Z,18.14
2023-04-17T11:43:21.483Z,18.14
2023-04-17T11:45:51.148Z,18.11
2023-04-17T11:48:22.699Z,18.10
2023-04-17T11:50:50.099Z,18.18
2023-04-17T11:53:17.509Z,18.22
2023-04-17T11:55:45.081Z,18.17
2023-04-17T11:58:14.074Z,17.97
2023-04-17T12:00:43.034Z,17.86
2023-04-17T12:03:33.591Z,17.78
2023-04-17T12:06:03.062Z,17.72
2023-04-17T12:08:31.134Z,17.62
2023-04-17T12:10:58.770Z,17.60
2023-04-17T12:13:26.365Z,17.58
2023-04-17T12:15:53.168Z,17.61
2023-04-17T12:18:19.932Z,17.73
2023-04-17T12:20:46.601Z,17.88
2023-04-17T12:23:14.324Z,18.01
2023-04-17T12:25:42.664Z,18.21
2023-04-17T12:28:09.366Z,18.38
2023-04-17T12:30:39.678Z,18.51
2023-04-17T12:33:07.245Z,18.41
2023-04-17T12:35:34.093Z,18.10
2023-04-17T12:38:01.017Z,17.92
2023-04-17T12:40:27.743Z,17.77
2023-04-17T12:42:54.457Z,17.67
2023-04-17T12:45:21.313Z,17.60
2023-04-17T12:47:48.284Z,17.53
2023-04-17T12:50:15.089Z,17.47
2023-04-17T12:52:42.099Z,17.42
2023-04-17T12:55:09.665Z,17.39
2023-04-17T12:57:36.824Z,17.44
2023-04-17T13:00:06.697Z,17.47
2023-04-17T13:02:35.422Z,17.51
2023-04-17T13:05:07.842Z,17.46
2023-04-17T13:07:34.576Z,17.41
2023-04-17T13:10:01.302Z,17.46
2023-04-17T13:12:28.009Z,17.48
2023-04-17T13:14:57.256Z,17.46
2023-04-17T13:17:24.924Z,17.41
2023-04-17T13:19:51.986Z,17.46
2023-04-17T13:22:20.688Z,17.47
2023-04-17T13:24:47.487Z,17.47
2023-04-17T13:27:14.198Z,17.44
2023-04-17T13:29:42.664Z,17.36
2023-04-17T13:32:09.858Z,17.24
2023-04-17T13:34:37.605Z,17.09
2023-04-17T13:37:04.356Z,16.85
2023-04-17T13:39:32.024Z,16.70
2023-04-17T13:41:58.696Z,16.67
2023-04-17T13:44:25.727Z,16.59
2023-04-17T13:46:52.884Z,16.53
2023-04-17T13:49:19.867Z,16.40
2023-04-17T13:51:47.118Z,16.28
2023-04-17T13:54:13.807Z,16.33
2023-04-17T13:56:42.415Z,16.44
2023-04-17T13:59:10.578Z,16.49
2023-04-17T14:01:37.840Z,16.49
2023-04-17T14:04:05.213Z,16.51
2023-04-17T14:06:34.813Z,16.53
2023-04-17T14:09:01.790Z,16.57
2023-04-17T14:11:28.709Z,16.60
2023-04-17T14:13:55.353Z,16.54
2023-04-17T14:16:22.081Z,16.52
2023-04-17T14:18:49.399Z,16.59
2023-04-17T14:21:16.948Z,16.61
2023-04-17T14:23:45.222Z,16.66
2023-04-17T14:26:12.601Z,16.75
2023-04-17T14:28:39.443Z,16.71
2023-04-17T14:31:06.417Z,16.67
2023-04-17T14:33:33.092Z,16.62
2023-04-17T14:35:59.834Z,16.58
2023-04-17T14:38:26.527Z,16.38
2023-04-17T14:40:53.354Z,16.17
2023-04-17T14:43:20.020Z,16.08
2023-04-17T14:45:46.867Z,15.98
2023-04-17T14:48:13.719Z,15.86
2023-04-17T14:50:40.490Z,15.68
2023-04-17T14:53:07.145Z,15.61
2023-04-17T14:55:34.421Z,15.47
2023-04-17T14:58:01.024Z,15.45
2023-04-17T15:00:27.641Z,15.53
2023-04-17T15:02:54.498Z,15.43
2023-04-17T15:05:22.501Z,15.38
2023-04-17T15:07:49.225Z,15.37
2023-04-17T15:10:16.236Z,15.50
2023-04-17T15:12:43.998Z,15.73
2023-04-17T15:15:11.143Z,15.68
2023-04-17T15:17:37.814Z,15.67
2023-04-17T15:20:05.826Z,15.58
2023-04-17T15:22:32.738Z,15.48
2023-04-17T15:24:59.426Z,15.34
2023-04-17T15:27:26.119Z,15.22
2023-04-17T15:29:52.834Z,15.04
2023-04-17T15:32:19.607Z,14.90
2023-04-17T15:34:46.430Z,14.78
2023-04-17T15:37:13.164Z,14.67
2023-04-17T15:39:40.054Z,14.57
2023-04-17T15:42:08.695Z,14.53
2023-04-17T15:44:37.550Z,14.47
2023-04-17T15:47:05.669Z,14.41
2023-04-17T15:49:32.882Z,14.32
2023-04-17T15:51:59.838Z,14.20
2023-04-17T15:54:26.893Z,14.11
2023-04-17T15:56:53.734Z,14.11
2023-04-17T15:59:20.869Z,14.13
2023-04-17T16:01:48.255Z,14.14
2023-04-17T16:04:15.304Z,14.10
2023-04-17T16:06:42.142Z,14.02
2023-04-17T16:09:09.872Z,14.05
2023-04-17T16:11:36.624Z,14.30
2023-04-17T16:14:03.479Z,14.48
2023-04-17T16:16:30.141Z,14.91
2023-04-17T16:18:57.627Z,15.30
2023-04-17T16:21:24.384Z,15.63
2023-04-17T16:23:51.035Z,15.81
2023-04-17T16:26:17.775Z,15.96
2023-04-17T16:28:45.812Z,15.80
2023-04-17T16:31:16.365Z,15.51
2023-04-17T16:33:43.813Z,15.10
2023-04-17T16:36:10.470Z,14.76
2023-04-17T16:38:38.750Z,14.53
2023-04-17T16:41:05.547Z,14.33
2023-04-17T16:43:32.219Z,14.18
2023-04-17T16:46:01.220Z,14.08
2023-04-17T16:48:30.154Z,13.92
2023-04-17T16:51:04.781Z,13.82
2023-04-17T16:53:31.869Z,13.76
2023-04-17T16:55:58.656Z,13.72
2023-04-17T16:58:25.241Z,13.73
2023-04-17T17:00:52.007Z,13.79
2023-04-17T17:03:20.094Z,13.84
2023-04-17T17:05:47.117Z,13.95
2023-04-17T17:08:14.530Z,14.02
2023-04-17T17:10:41.282Z,14.07
2023-04-17T17:13:07.970Z,14.13
2023-04-17T17:15:34.785Z,14.13
2023-04-17T17:18:01.569Z,14.12
2023-04-17T17:20:28.354Z,14.16
2023-04-17T17:22:55.010Z,14.22
2023-04-17T17:25:23.084Z,14.31
2023-04-17T17:27:49.844Z,14.51
2023-04-17T17:30:16.752Z,14.63
2023-04-17T17:32:43.470Z,14.72
2023-04-17T17:35:10.222Z,14.73
2023-04-17T17:37:36.951Z,14.74
2023-04-17T17:40:04.410Z,14.96
2023-04-17T17:42:31.076Z,15.20
2023-04-17T17:44:57.718Z,15.33
2023-04-17T17:47:24.392Z,15.47
2023-04-17T17:49:51.007Z,15.63
2023-04-17T17:52:17.820Z,15.81
2023-04-17T17:54:44.454Z,15.91
2023-04-17T17:57:11.199Z,15.89
2023-04-17T17:59:37.855Z,15.86
2023-04-17T18:02:04.879Z,15.78
2023-04-17T18:04:31.712Z,15.54
2023-04-17T18:06:58.359Z,15.35
2023-04-17T18:09:25.282Z,15.15
2023-04-17T18:11:51.962Z,14.95
2023-04-17T18:14:18.618Z,14.69
2023-04-17T18:16:45.502Z,14.48
2023-04-17T18:19:12.301Z,14.31
2023-04-17T18:21:39.288Z,14.28
2023-04-17T18:24:06.363Z,14.20
2023-04-17T18:26:34.092Z,14.08
2023-04-17T18:29:00.890Z,13.92
2023-04-17T18:31:28.440Z,13.79
2023-04-17T18:33:55.194Z,13.64
2023-04-17T18:36:21.852Z,13.51
2023-04-17T18:38:48.650Z,13.37
2023-04-17T18:41:15.345Z,13.22
2023-04-17T18:43:43.029Z,13.15
2023-04-17T18:46:09.694Z,13.04
2023-04-17T18:48:36.474Z,12.98
2023-04-17T18:51:14.571Z,12.90
2023-04-17T18:53:41.550Z,12.79
2023-04-17T18:56:09.256Z,12.75
2023-04-17T18:58:37.699Z,12.67
2023-04-17T19:01:06.077Z,12.60
2023-04-17T19:03:33.087Z,12.59
2023-04-17T19:05:59.818Z,12.57
2023-04-17T19:08:26.493Z,12.55
2023-04-17T19:10:53.167Z,12.49
2023-04-17T19:13:19.910Z,12.40
2023-04-17T19:15:46.508Z,12.38
2023-04-17T19:18:13.224Z,12.33
2023-04-17T19:20:41.270Z,12.27
2023-04-17T19:23:09.362Z,12.20
2023-04-17T19:25:38.764Z,12.14
2023-04-17T19:28:05.865Z,12.10
2023-04-17T19:30:32.540Z,12.10
2023-04-17T19:32:59.414Z,12.06
2023-04-17T19:35:26.455Z,12.00
2023-04-17T19:37:53.171Z,11.97
2023-04-17T19:40:24.893Z,11.88
2023-04-17T19:42:52.544Z,11.83
2023-04-17T19:45:20.904Z,11.75
2023-04-17T19:47:55.001Z,11.73
2023-04-17T19:50:27.385Z,11.68
2023-04-17T19:52:55.169Z,11.61
2023-04-17T19:55:21.980Z,11.57
2023-04-17T19:57:50.673Z,11.51
2023-04-17T20:00:17.814Z,11.47
2023-04-17T20:02:44.784Z,11.48
2023-04-17T20:05:12.235Z,11.49
2023-04-17T20:07:38.970Z,11.47
2023-04-17T20:10:06.927Z,11.44
2023-04-17T20:12:33.863Z,11.39
2023-04-17T20:15:01.129Z,11.37
2023-04-17T20:17:27.866Z,11.36
2023-04-17T20:19:54.564Z,11.31
2023-04-17T20:22:21.221Z,11.28
2023-04-17T20:24:51.109Z,11.25
2023-04-17T20:27:18.093Z,11.25
2023-04-17T20:29:45.056Z,11.24
2023-04-17T20:32:11.956Z,11.22
2023-04-17T20:34:38.582Z,11.24
2023-04-17T20:37:05.297Z,11.27
2023-04-17T20:39:32.245Z,11.25
2023-04-17T20:42:01.999Z,11.20
2023-04-17T20:44:28.704Z,11.17
2023-04-17T20:46:55.354Z,11.14
2023-04-17T20:49:22.084Z,11.15
2023-04-17T20:51:48.918Z,11.14
2023-04-17T20:54:15.788Z,11.13
2023-04-17T20:56:43.418Z,11.10
2023-04-17T20:59:10.765Z,11.11
2023-04-17T21:01:37.481Z,11.07
2023-04-17T21:04:04.465Z,11.04
2023-04-17T21:06:31.225Z,11.00
2023-04-17T21:08:57.993Z,10.99
2023-04-17T21:11:24.832Z,10.95
2023-04-17T21:13:51.534Z,10.91
2023-04-17T21:16:18.186Z,10.88
2023-04-17T21:18:45.389Z,10.86
2023-04-17T21:21:12.046Z,10.83
2023-04-17T21:23:38.661Z,10.81
2023-04-17T21:26:05.310Z,10.83
2023-04-17T21:28:33.143Z,10.85
2023-04-17T21:30:59.786Z,10.87
2023-04-17T21:33:26.421Z,10.87
2023-04-17T21:35:53.101Z,10.86
2023-04-17T21:38:19.758Z,10.86
2023-04-17T21:43:18.320Z,10.88
2023-04-17T21:45:44.983Z,10.92
2023-04-17T21:48:11.584Z,10.96
2023-04-17T21:50:39.475Z,10.91
2023-04-17T21:53:07.821Z,10.91
2023-04-17T21:55:35.217Z,10.95
2023-04-17T21:58:01.984Z,10.98
2023-04-17T22:00:28.700Z,10.99
2023-04-17T22:02:55.423Z,11.00
2023-04-17T22:05:22.158Z,11.03
2023-04-17T22:07:55.055Z,11.05
2023-04-17T22:10:23.690Z,11.10
2023-04-17T22:12:51.280Z,11.09
2023-04-17T22:15:18.013Z,11.10
2023-04-17T22:17:44.749Z,11.11
2023-04-17T22:20:11.986Z,11.19
2023-04-17T22:22:38.630Z,11.20
2023-04-17T22:25:05.832Z,11.22
2023-04-17T22:27:32.476Z,11.28
2023-04-17T22:29:59.163Z,11.28
2023-04-17T22:32:25.938Z,11.27
2023-04-17T22:34:52.581Z,11.26
2023-04-17T22:37:19.381Z,11.22
2023-04-17T22:39:46.389Z,11.22
2023-04-17T22:42:13.006Z,11.21
2023-04-17T22:44:41.829Z,11.16
2023-04-17T22:47:08.434Z,11.16
2023-04-17T22:49:38.068Z,11.19
2023-04-17T22:52:06.256Z,11.24
2023-04-17T22:54:34.111Z,11.28
2023-04-17T22:57:02.385Z,11.27
2023-04-17T22:59:29.958Z,11.26
2023-04-17T23:01:56.821Z,11.29
2023-04-17T23:04:24.186Z,11.31
2023-04-17T23:06:50.905Z,11.34
2023-04-17T23:09:18.742Z,11.36
2023-04-17T23:11:45.488Z,11.35
2023-04-17T23:14:12.391Z,11.31
2023-04-17T23:16:39.334Z,11.34
2023-04-17T23:19:06.003Z,11.35
2023-04-17T23:21:32.733Z,11.35
2023-04-17T23:23:59.412Z,11.34
2023-04-17T23:26:26.103Z,11.31
2023-04-17T23:28:52.788Z,11.31
2023-04-17T23:31:19.467Z,11.33
2023-04-17T23:33:48.955Z,11.33
2023-04-17T23:36:15.660Z,11.32
2023-04-17T23:38:42.628Z,11.29
2023-04-17T23:41:09.331Z,11.25
2023-04-17T23:43:36.009Z,11.25
2023-04-17T23:46:02.708Z,11.27
2023-04-17T23:48:29.372Z,11.30
2023-04-17T23:50:56.122Z,11.31
2023-04-17T23:53:22.936Z,11.32
2023-04-17T23:55:49.562Z,11.34
2023-04-17T23:58:16.255Z,11.36
